createdAt,value
2023-02-06T00:01:39.382Z,101707.65
2023-02-06T00:04:07.885Z,101704.52
2023-02-06T00:06:41.429Z,101699.88
2023-02-06T00:09:10.292Z,101702.16
2023-02-06T00:11:42.068Z,101696.20
2023-02-06T00:14:10.550Z,101695.44
2023-02-06T00:16:58.939Z,101693.88
2023-02-06T00:19:27.827Z,101697.95
2023-02-06T00:21:56.645Z,101701.73
2023-02-06T00:24:25.261Z,101698.58
2023-02-06T00:26:53.825Z,101703.61
2023-02-06T00:29:22.527Z,101703.31
2023-02-06T00:31:51.391Z,101703.20
2023-02-06T00:34:19.734Z,101699.97
2023-02-06T00:36:48.285Z,101700.06
2023-02-06T00:39:16.689Z,101698.28
2023-02-06T00:41:45.349Z,101700.64
2023-02-06T00:44:13.903Z,101701.40
2023-02-06T00:46:42.454Z,101699.09
2023-02-06T00:49:11.011Z,101698.23
2023-02-06T00:51:40.763Z,101702.09
2023-02-06T00:54:09.444Z,101698.04
2023-02-06T00:56:38.199Z,101689.23
2023-02-06T00:59:06.614Z,101693.17
2023-02-06T01:01:35.534Z,101693.79
2023-02-06T01:04:04.399Z,101698.91
2023-02-06T01:06:42.327Z,101701.16
2023-02-06T01:09:10.882Z,101703.69
2023-02-06T01:11:40.006Z,101700.92
2023-02-06T01:14:08.574Z,101696.87
2023-02-06T01:16:38.480Z,101699.33
2023-02-06T01:29:33.875Z,101696.98
2023-02-06T01:32:06.597Z,101692.98
2023-02-06T01:34:35.563Z,101691.84
2023-02-06T01:37:05.840Z,101689.46
2023-02-06T01:39:35.161Z,101689.54
2023-02-06T01:42:04.668Z,101689.95
2023-02-06T01:44:34.390Z,101694.42
2023-02-06T01:47:04.712Z,101697.02
2023-02-06T01:49:37.661Z,101698.52
2023-02-06T01:52:18.373Z,101694.95
2023-02-06T01:54:58.868Z,101698.39
2023-02-06T01:57:28.251Z,101701.41
2023-02-06T01:59:59.244Z,101705.12
2023-02-06T02:02:28.849Z,101704.29
2023-02-06T02:05:00.865Z,101706.35
2023-02-06T02:07:38.985Z,101711.94
2023-02-06T02:10:09.069Z,101714.65
2023-02-06T02:12:41.865Z,101718.17
2023-02-06T02:15:12.188Z,101724.85
2023-02-06T02:17:56.937Z,101728.52
2023-02-06T02:20:28.612Z,101730.15
2023-02-06T02:23:04.736Z,101728.16
2023-02-06T02:25:49.364Z,101733.90
2023-02-06T02:28:25.333Z,101733.11
2023-02-06T02:30:59.909Z,101734.30
2023-02-06T02:33:29.248Z,101735.55
2023-02-06T02:36:11.038Z,101733.54
2023-02-06T02:38:49.588Z,101734.99
2023-02-06T02:41:27.922Z,101731.82
2023-02-06T02:43:59.288Z,101736.23
2023-02-06T02:46:30.065Z,101736.09
2023-02-06T02:49:02.370Z,101743.27
2023-02-06T02:51:34.497Z,101746.16
2023-02-06T02:54:04.221Z,101743.14
2023-02-06T02:56:36.742Z,101742.69
2023-02-06T02:59:14.318Z,101743.05
2023-02-06T03:01:50.315Z,101742.08
2023-02-06T03:04:24.218Z,101743.70
2023-02-06T03:06:57.374Z,101745.56
2023-02-06T03:09:36.149Z,101749.80
2023-02-06T03:12:13.077Z,101747.42
2023-02-06T03:14:44.937Z,101748.00
2023-02-06T03:17:15.054Z,101748.66
2023-02-06T03:19:49.895Z,101748.25
2023-02-06T03:22:20.003Z,101754.27
2023-02-06T03:24:50.234Z,101748.46
2023-02-06T03:27:20.071Z,101752.38
2023-02-06T03:29:49.692Z,101753.57
2023-02-06T03:32:37.887Z,101754.38
2023-02-06T03:35:23.683Z,101757.56
2023-02-06T03:37:52.479Z,101759.65
2023-02-06T03:40:34.671Z,101765.66
2023-02-06T03:43:03.972Z,101765.77
2023-02-06T03:45:40.858Z,101766.01
2023-02-06T03:48:12.402Z,101766.38
2023-02-06T03:50:42.335Z,101767.48
2023-02-06T03:53:14.597Z,101768.02
2023-02-06T03:55:43.677Z,101771.10
2023-02-06T03:58:14.041Z,101770.29
2023-02-06T04:00:43.715Z,101770.91
2023-02-06T04:03:14.180Z,101771.39
2023-02-06T04:05:43.570Z,101772.02
2023-02-06T04:08:15.815Z,101773.95
2023-02-06T04:10:45.230Z,101772.25
2023-02-06T04:13:15.237Z,101774.63
2023-02-06T04:15:45.473Z,101773.96
2023-02-06T04:18:15.781Z,101777.18
2023-02-06T04:20:45.797Z,101784.02
2023-02-06T04:23:19.914Z,101784.23
2023-02-06T04:25:48.712Z,101788.52
2023-02-06T04:28:18.158Z,101789.31
2023-02-06T04:30:51.475Z,101789.40
2023-02-06T04:33:20.911Z,101789.73
2023-02-06T04:35:52.064Z,101789.94
2023-02-06T04:38:21.759Z,101796.31
2023-02-06T04:40:50.758Z,101795.84
2023-02-06T04:43:21.487Z,101805.23
2023-02-06T04:45:50.944Z,101800.98
2023-02-06T04:48:20.506Z,101800.77
2023-02-06T04:50:51.230Z,101795.15
2023-02-06T04:53:20.322Z,101801.16
2023-02-06T04:55:52.399Z,101799.04
2023-02-06T04:58:22.930Z,101798.36
2023-02-06T05:00:53.078Z,101802.42
2023-02-06T05:03:24.601Z,101803.98
2023-02-06T05:06:13.678Z,101806.30
2023-02-06T05:09:01.887Z,101804.51
2023-02-06T05:11:31.521Z,101805.23
2023-02-06T05:14:01.624Z,101803.14
2023-02-06T05:16:31.451Z,101804.54
2023-02-06T05:19:02.307Z,101808.13
2023-02-06T05:21:32.691Z,101807.67
2023-02-06T05:24:03.041Z,101809.20
2023-02-06T05:26:35.259Z,101809.52
2023-02-06T05:29:04.604Z,101814.59
2023-02-06T05:31:36.987Z,101812.11
2023-02-06T05:34:06.660Z,101814.05
2023-02-06T05:36:41.307Z,101816.75
2023-02-06T05:39:10.811Z,101818.33
2023-02-06T05:41:41.534Z,101817.79
2023-02-06T05:44:11.862Z,101817.38
2023-02-06T05:46:46.126Z,101814.34
2023-02-06T05:49:16.087Z,101813.76
2023-02-06T05:51:45.020Z,101814.91
2023-02-06T05:54:17.439Z,101817.86
2023-02-06T05:56:53.140Z,101822.77
2023-02-06T05:59:26.011Z,101821.13
2023-02-06T06:02:00.045Z,101822.73
2023-02-06T06:04:29.988Z,101826.54
2023-02-06T06:06:59.855Z,101823.55
2023-02-06T06:09:33.550Z,101823.85
2023-02-06T06:12:02.993Z,101827.07
2023-02-06T06:14:33.983Z,101826.61
2023-02-06T06:17:03.617Z,101820.27
2023-02-06T06:19:36.184Z,101818.70
2023-02-06T06:22:08.672Z,101817.27
2023-02-06T06:24:38.591Z,101818.30
2023-02-06T06:27:11.585Z,101818.56
2023-02-06T06:29:41.569Z,101817.98
2023-02-06T06:32:11.028Z,101820.63
2023-02-06T06:34:40.693Z,101824.59
2023-02-06T06:37:10.617Z,101823.75
2023-02-06T06:39:42.911Z,101824.30
2023-02-06T06:42:16.399Z,101826.39
2023-02-06T06:44:48.242Z,101826.00
2023-02-06T06:47:18.117Z,101829.08
2023-02-06T06:49:47.762Z,101834.52
2023-02-06T06:52:24.961Z,101831.93
2023-02-06T06:54:55.695Z,101829.90
2023-02-06T06:57:25.888Z,101832.48
2023-02-06T06:59:55.572Z,101832.65
2023-02-06T07:02:25.563Z,101837.66
2023-02-06T07:04:54.796Z,101842.73
2023-02-06T07:07:25.082Z,101847.18
2023-02-06T07:09:55.200Z,101847.82
2023-02-06T07:12:25.680Z,101850.34
2023-02-06T07:14:57.319Z,101850.83
2023-02-06T07:17:27.900Z,101852.52
2023-02-06T07:19:58.272Z,101853.33
2023-02-06T07:22:27.598Z,101854.15
2023-02-06T07:24:56.988Z,101855.17
2023-02-06T07:27:27.080Z,101860.46
2023-02-06T07:30:00.702Z,101865.18
2023-02-06T07:32:31.312Z,101862.52
2023-02-06T07:35:01.733Z,101866.08
2023-02-06T07:37:31.950Z,101865.69
2023-02-06T07:40:01.652Z,101868.90
2023-02-06T07:42:34.812Z,101867.66
2023-02-06T07:45:11.476Z,101870.01
2023-02-06T07:47:42.488Z,101867.77
2023-02-06T07:50:14.186Z,101868.28
2023-02-06T07:52:44.376Z,101870.71
2023-02-06T07:55:14.122Z,101870.79
2023-02-06T07:57:45.520Z,101869.21
2023-02-06T08:00:15.500Z,101867.98
2023-02-06T08:02:45.712Z,101864.37
2023-02-06T08:05:19.444Z,101866.02
2023-02-06T08:07:51.517Z,101869.77
2023-02-06T08:10:22.019Z,101869.83
2023-02-06T08:13:15.233Z,101872.41
2023-02-06T08:15:46.789Z,101875.11
2023-02-06T10:06:36.189Z,101895.14
2023-02-06T10:09:23.802Z,101881.58
2023-02-06T10:11:54.365Z,101880.25
2023-02-06T10:14:40.343Z,101880.86
2023-02-06T10:17:25.330Z,101880.73
2023-02-06T10:20:01.878Z,101874.27
2023-02-06T10:22:38.696Z,101869.75
2023-02-06T10:25:36.378Z,101869.30
2023-02-06T10:28:29.909Z,101862.01
2023-02-06T10:31:04.807Z,101860.73
2023-02-06T10:33:51.890Z,101857.75
2023-02-06T10:36:38.377Z,101862.45
2023-02-06T10:39:21.372Z,101862.71
2023-02-06T10:41:56.519Z,101860.42
2023-02-06T10:44:32.523Z,101859.54
2023-02-06T10:47:02.586Z,101859.12
2023-02-06T10:49:47.879Z,101857.64
2023-02-06T10:52:36.882Z,101859.84
2023-02-06T10:55:21.835Z,101855.65
2023-02-06T10:57:57.394Z,101848.89
2023-02-06T11:00:28.043Z,101852.09
2023-02-06T11:03:07.234Z,101854.84
2023-02-06T11:05:37.407Z,101851.35
2023-02-06T11:08:34.523Z,101849.89
2023-02-06T11:11:19.667Z,101852.77
2023-02-06T11:13:53.575Z,101854.72
2023-02-06T11:16:28.367Z,101856.62
2023-02-06T11:19:00.302Z,101858.46
2023-02-06T11:21:42.557Z,101860.42
2023-02-06T11:24:17.839Z,101866.67
2023-02-06T11:26:54.563Z,101869.92
2023-02-06T11:29:26.313Z,101868.52
2023-02-06T11:32:01.041Z,101866.97
2023-02-06T11:34:43.173Z,101869.35
2023-02-06T11:37:36.334Z,101863.83
2023-02-06T11:40:20.060Z,101858.41
2023-02-06T11:43:09.423Z,101862.31
2023-02-06T11:45:48.768Z,101866.55
2023-02-06T11:49:12.714Z,101864.81
2023-02-06T11:51:57.473Z,101866.37
2023-02-06T11:54:32.582Z,101868.55
2023-02-06T11:57:23.177Z,101866.15
2023-02-06T11:59:56.495Z,101860.94
2023-02-06T12:02:32.304Z,101860.66
2023-02-06T12:05:16.029Z,101858.59
2023-02-06T12:08:13.687Z,101855.71
2023-02-06T12:11:01.559Z,101860.05
2023-02-06T12:13:39.230Z,101857.48
2023-02-06T12:16:08.411Z,101858.08
2023-02-06T12:18:39.936Z,101852.81
2023-02-06T12:21:12.405Z,101850.35
2023-02-06T12:23:53.471Z,101847.33
2023-02-06T12:26:25.321Z,101846.55
2023-02-06T12:29:11.878Z,101848.04
2023-02-06T12:31:49.192Z,101855.34
2023-02-06T12:34:33.241Z,101852.55
2023-02-06T12:37:22.151Z,101856.41
2023-02-06T12:39:51.292Z,101855.38
2023-02-06T12:42:43.412Z,101849.98
2023-02-06T12:46:01.390Z,101853.52
2023-02-06T12:49:05.160Z,101845.66
2023-02-06T12:52:21.166Z,101845.71
2023-02-06T12:55:06.532Z,101845.51
2023-02-06T12:57:35.855Z,101841.64
2023-02-06T13:00:14.789Z,101834.57
2023-02-06T13:03:06.645Z,101831.54
2023-02-06T13:05:45.290Z,101831.48
2023-02-06T13:08:22.290Z,101833.63
2023-02-06T13:11:02.254Z,101830.86
2023-02-06T13:13:37.352Z,101824.17
2023-02-06T13:16:08.689Z,101827.84
2023-02-06T13:18:51.355Z,101828.10
2023-02-06T13:21:25.016Z,101824.36
2023-02-06T13:24:04.663Z,101824.56
2023-02-06T13:27:09.692Z,101821.33
2023-02-06T13:29:44.214Z,101820.58
2023-02-06T13:32:16.512Z,101824.79
2023-02-06T13:34:51.465Z,101824.28
2023-02-06T13:37:33.033Z,101829.42
2023-02-06T13:40:17.484Z,101833.27
2023-02-06T13:43:09.853Z,101835.83
2023-02-06T13:46:15.991Z,101837.78
2023-02-06T13:49:12.144Z,101838.98
2023-02-06T13:52:09.013Z,101837.36
2023-02-06T13:54:51.407Z,101838.14
2023-02-06T13:57:30.180Z,101838.30
2023-02-06T14:00:18.242Z,101841.60
2023-02-06T14:02:52.404Z,101842.25
2023-02-06T14:05:33.193Z,101845.39
2023-02-06T14:08:35.292Z,101845.80
2023-02-06T14:11:39.909Z,101848.31
2023-02-06T14:14:28.784Z,101848.38
2023-02-06T14:17:38.263Z,101851.75
2023-02-06T14:20:16.821Z,101850.86
2023-02-06T14:22:53.068Z,101851.80
2023-02-06T14:26:00.510Z,101849.22
2023-02-06T14:28:46.713Z,101851.62
2023-02-06T14:31:38.693Z,101851.95
2023-02-06T14:34:54.938Z,101853.23
2023-02-06T14:38:04.286Z,101857.16
2023-02-06T14:40:39.680Z,101860.90
2023-02-06T14:43:14.848Z,101867.20
2023-02-06T14:46:04.191Z,101872.08
2023-02-06T14:48:36.055Z,101874.66
2023-02-06T14:51:38.507Z,101885.65
2023-02-06T14:54:27.802Z,101886.19
2023-02-06T14:57:03.373Z,101888.17
2023-02-06T14:59:56.255Z,101892.04
2023-02-06T15:02:29.523Z,101891.42
2023-02-06T15:05:00.552Z,101892.33
2023-02-06T15:07:35.628Z,101899.95
2023-02-06T15:10:15.234Z,101903.27
2023-02-06T15:12:52.069Z,101902.83
2023-02-06T15:15:23.668Z,101905.70
2023-02-06T15:18:03.518Z,101907.09
2023-02-06T15:20:48.510Z,101909.64
2023-02-06T15:23:40.990Z,101917.08
2023-02-06T15:26:43.212Z,101923.61
2023-02-06T15:29:28.055Z,101926.43
2023-02-06T15:32:15.481Z,101930.15
2023-02-06T15:34:46.337Z,101934.61
2023-02-06T15:37:24.379Z,101931.63
2023-02-06T15:39:55.369Z,101935.18
2023-02-06T15:42:24.935Z,101940.05
2023-02-06T15:44:54.196Z,101935.68
2023-02-06T15:47:24.618Z,101937.69
2023-02-06T15:49:57.596Z,101942.86
2023-02-06T15:52:37.859Z,101945.17
2023-02-06T15:55:10.066Z,101945.30
2023-02-06T15:57:43.840Z,101948.75
2023-02-06T16:00:37.885Z,101941.21
2023-02-06T16:03:17.616Z,101940.76
2023-02-06T16:05:49.583Z,101936.86
2023-02-06T16:08:39.081Z,101940.15
2023-02-06T16:11:28.556Z,101945.83
2023-02-06T16:14:01.759Z,101941.71
2023-02-06T16:16:31.626Z,101939.45
2023-02-06T16:19:00.857Z,101944.44
2023-02-06T16:21:32.174Z,101939.28
2023-02-06T16:24:05.097Z,101932.44
2023-02-06T16:26:45.346Z,101935.08
2023-02-06T16:29:31.517Z,101928.19
2023-02-06T16:32:26.312Z,101924.85
2023-02-06T16:34:55.994Z,101913.60
2023-02-06T16:37:28.953Z,101916.41
2023-02-06T16:39:58.351Z,101911.71
2023-02-06T16:42:34.437Z,101913.23
2023-02-06T16:45:29.487Z,101914.09
2023-02-06T16:47:58.860Z,101914.20
2023-02-06T16:50:29.728Z,101910.63
2023-02-06T16:53:01.415Z,101912.80
2023-02-06T16:55:33.293Z,101906.64
2023-02-06T16:58:02.866Z,101908.38
2023-02-06T17:00:33.007Z,101909.06
2023-02-06T17:03:05.435Z,101906.86
2023-02-06T17:05:38.338Z,101907.98
2023-02-06T17:08:23.512Z,101909.63
2023-02-06T17:10:53.499Z,101909.02
2023-02-06T17:13:25.902Z,101913.44
2023-02-06T17:15:55.339Z,101914.95
2023-02-06T17:18:25.489Z,101911.45
2023-02-06T17:20:56.477Z,101910.73
2023-02-06T17:23:25.276Z,101915.30
2023-02-06T17:25:54.969Z,101919.15
2023-02-06T17:28:25.702Z,101916.39
2023-02-06T17:30:55.411Z,101919.98
2023-02-06T17:33:25.016Z,101919.27
2023-02-06T17:35:54.540Z,101918.27
2023-02-06T17:38:24.473Z,101920.52
2023-02-06T17:40:54.722Z,101918.45
2023-02-06T17:43:25.578Z,101914.27
2023-02-06T17:45:57.094Z,101909.52
2023-02-06T17:48:28.524Z,101908.02
2023-02-06T17:50:58.676Z,101904.11
2023-02-06T17:53:28.912Z,101901.17
2023-02-06T17:56:03.697Z,101902.27
2023-02-06T17:58:36.936Z,101900.02
2023-02-06T18:01:23.535Z,101898.67
2023-02-06T18:03:56.612Z,101900.02
2023-02-06T18:06:27.994Z,101905.59
2023-02-06T18:09:01.633Z,101913.45
2023-02-06T18:11:49.181Z,101912.27
2023-02-06T18:14:19.481Z,101919.85
2023-02-06T18:16:50.100Z,101919.21
2023-02-06T18:19:24.696Z,101920.39
2023-02-06T18:22:08.855Z,101921.22
2023-02-06T18:24:53.014Z,101923.16
2023-02-06T18:27:37.341Z,101925.09
2023-02-06T18:30:06.697Z,101924.80
2023-02-06T18:35:17.577Z,101923.05
2023-02-06T18:38:00.551Z,101927.61
2023-02-06T18:40:39.728Z,101929.89
2023-02-06T18:43:09.197Z,101926.94
2023-02-06T18:45:39.444Z,101934.11
2023-02-06T18:48:13.595Z,101936.38
2023-02-06T18:50:43.770Z,101937.80
2023-02-06T18:53:13.277Z,101936.57
2023-02-06T18:55:44.258Z,101938.63
2023-02-06T18:58:17.418Z,101937.34
2023-02-06T19:00:49.409Z,101937.62
2023-02-06T19:03:18.968Z,101942.98
2023-02-06T19:05:48.408Z,101942.09
2023-02-06T19:08:19.309Z,101941.11
2023-02-06T19:10:48.741Z,101940.44
2023-02-06T19:13:18.741Z,101942.10
2023-02-06T19:15:48.717Z,101939.81
2023-02-06T19:18:23.432Z,101936.35
2023-02-06T19:21:01.091Z,101939.00
2023-02-06T19:23:31.612Z,101935.86
2023-02-06T19:26:02.793Z,101933.66
2023-02-06T19:28:36.488Z,101936.80
2023-02-06T19:31:07.993Z,101934.75
2023-02-06T19:33:40.088Z,101934.08
2023-02-06T19:36:15.022Z,101931.09
2023-02-06T19:38:49.247Z,101932.05
2023-02-06T19:41:21.908Z,101933.71
2023-02-06T19:43:52.762Z,101933.98
2023-02-06T19:46:27.250Z,101931.14
2023-02-06T19:48:57.688Z,101928.70
2023-02-06T19:51:30.066Z,101930.27
2023-02-06T19:54:00.706Z,101923.04
2023-02-06T19:56:40.634Z,101918.68
2023-02-06T19:59:26.500Z,101921.49
2023-02-06T20:01:59.163Z,101923.05
2023-02-06T20:04:34.979Z,101924.06
2023-02-06T20:07:05.798Z,101925.67
2023-02-06T20:09:37.456Z,101923.42
2023-02-06T20:12:08.618Z,101921.59
2023-02-06T20:14:39.423Z,101917.69
2023-02-06T20:17:09.059Z,101916.36
2023-02-06T20:19:41.008Z,101915.45
2023-02-06T20:22:11.860Z,101914.13
2023-02-06T20:24:41.268Z,101913.37
2023-02-06T20:27:13.627Z,101903.65
2023-02-06T20:29:46.842Z,101904.90
2023-02-06T20:32:17.816Z,101908.44
2023-02-06T20:34:49.364Z,101906.98
2023-02-06T20:37:21.928Z,101906.52
2023-02-06T20:39:52.638Z,101911.79
2023-02-06T20:42:28.459Z,101909.86
2023-02-06T20:45:03.127Z,101907.15
2023-02-06T20:47:33.107Z,101910.15
2023-02-06T20:50:03.323Z,101912.02
2023-02-06T20:52:35.445Z,101909.46
2023-02-06T20:55:06.684Z,101909.52
2023-02-06T20:57:37.465Z,101907.88
2023-02-06T21:00:08.023Z,101904.47
2023-02-06T21:02:37.762Z,101902.38
2023-02-06T21:05:08.630Z,101907.41
2023-02-06T21:07:39.786Z,101908.60
2023-02-06T21:10:11.101Z,101908.23
2023-02-06T21:12:43.356Z,101910.33
2023-02-06T21:15:13.141Z,101908.37
2023-02-06T21:17:43.437Z,101912.11
2023-02-06T21:20:16.251Z,101909.84
2023-02-06T21:22:47.384Z,101909.50
2023-02-06T21:25:17.077Z,101907.91
2023-02-06T21:27:46.823Z,101905.98
2023-02-06T21:30:16.806Z,101904.67
2023-02-06T21:32:47.137Z,101905.44
2023-02-06T21:35:18.669Z,101909.73
2023-02-06T21:37:48.500Z,101912.05
2023-02-06T21:40:19.484Z,101904.23
2023-02-06T21:42:49.394Z,101903.40
2023-02-06T21:45:18.541Z,101906.16
2023-02-06T21:47:49.999Z,101901.10
2023-02-06T21:50:19.295Z,101894.13
2023-02-06T21:52:49.847Z,101891.01
2023-02-06T21:55:19.547Z,101880.00
2023-02-06T21:57:49.353Z,101881.23
2023-02-06T22:00:21.255Z,101881.65
2023-02-06T22:02:51.353Z,101874.48
2023-02-06T22:05:21.972Z,101869.10
2023-02-06T22:07:51.992Z,101863.13
2023-02-06T22:10:21.300Z,101866.42
2023-02-06T22:12:51.033Z,101863.91
2023-02-06T22:15:21.721Z,101862.20
2023-02-06T22:17:52.491Z,101867.19
2023-02-06T22:20:21.622Z,101863.20
2023-02-06T22:22:52.615Z,101863.14
2023-02-06T22:25:23.531Z,101856.38
2023-02-06T22:27:55.865Z,101855.77
2023-02-06T22:30:26.361Z,101852.69
2023-02-06T22:32:55.555Z,101857.79
2023-02-06T22:35:28.072Z,101851.95
2023-02-06T22:37:58.801Z,101847.58
2023-02-06T22:40:29.695Z,101848.36
2023-02-06T22:43:02.247Z,101853.48
2023-02-06T22:45:36.402Z,101856.55
2023-02-06T22:48:06.898Z,101857.10
2023-02-06T22:50:37.225Z,101856.04
2023-02-06T22:53:25.311Z,101850.57
2023-02-06T22:56:13.486Z,101852.57
2023-02-06T22:58:44.524Z,101845.84
2023-02-06T23:01:14.841Z,101847.36
2023-02-06T23:03:44.165Z,101842.96
2023-02-06T23:06:16.866Z,101841.39
2023-02-06T23:08:48.802Z,101839.39
2023-02-06T23:11:18.828Z,101838.29
2023-02-06T23:13:53.136Z,101837.36
2023-02-06T23:16:29.549Z,101842.05
2023-02-06T23:18:59.089Z,101838.81
2023-02-06T23:21:29.429Z,101835.23
2023-02-06T23:24:01.323Z,101836.48
2023-02-06T23:26:31.333Z,101839.83
2023-02-06T23:29:02.874Z,101835.84
2023-02-06T23:31:33.289Z,101833.10
2023-02-06T23:34:03.362Z,101833.85
2023-02-06T23:36:32.448Z,101839.29
2023-02-06T23:39:03.944Z,101833.34
2023-02-06T23:41:33.083Z,101827.98
2023-02-06T23:44:06.542Z,101831.73
2023-02-06T23:46:37.495Z,101828.52
2023-02-06T23:49:07.354Z,101833.56
2023-02-06T23:51:39.990Z,101835.38
2023-02-06T23:54:09.389Z,101834.84
2023-02-06T23:56:38.803Z,101832.89
2023-02-06T23:59:07.689Z,101827.36
